Time;durP1;ratioP1;P1;durP2;ratioP2;P2;SDS_P1;SDS_P2;PMS_P1;PMS_P2;Temp;Humidity;BMP_temperature;BMP_pressure;BME280_temperature;BME280_humidity;BME280_pressure;Samples;Min_cycle;Max_cycle;Signal;HPM_P1;HPM_P2
2023/07/17 00:00:12;;;;;;;;;;;26.90;58.70;;;;;;5094258;28;19969;-57
2023/07/17 00:02:40;;;;;;;;;;;26.90;58.70;;;;;;5094655;28;19924;-56
2023/07/17 00:05:07;;;;;;;;;;;26.90;58.70;;;;;;5094862;28;19924;-59
2023/07/17 00:07:34;;;;;;;;;;;26.90;58.80;;;;;;5094498;28;19931;-55
2023/07/17 00:10:01;;;;;;;;;;;26.90;58.80;;;;;;5094066;28;20427;-56
2023/07/17 00:12:28;;;;;;;;;;;26.80;58.70;;;;;;5093933;28;19931;-57
2023/07/17 00:14:55;;;;;;;;;;;26.80;59.30;;;;;;5094578;28;20383;-57
2023/07/17 00:17:22;;;;;;;;;;;26.90;58.80;;;;;;5093121;28;20304;-56
2023/07/17 00:19:54;;;;;;;;;;;26.80;58.70;;;;;;5094546;28;19970;-57
2023/07/17 00:22:21;;;;;;;;;;;26.80;58.80;;;;;;5093989;28;19967;-55
2023/07/17 00:24:49;;;;;;;;;;;26.80;58.80;;;;;;5094423;28;19931;-57
2023/07/17 00:27:16;;;;;;;;;;;26.80;58.80;;;;;;5093655;28;19924;-56
2023/07/17 00:29:44;;;;;;;;;;;26.80;58.80;;;;;;5094626;28;20292;-57
2023/07/17 00:32:14;;;;;;;;;;;26.80;58.80;;;;;;5094095;28;19931;-59
2023/07/17 00:34:41;;;;;;;;;;;26.80;58.80;;;;;;5094712;28;19928;-56
2023/07/17 00:37:09;;;;;;;;;;;26.80;58.80;;;;;;5093963;28;19985;-57
2023/07/17 00:39:36;;;;;;;;;;;26.80;58.80;;;;;;5093645;28;20011;-57
2023/07/17 00:42:03;;;;;;;;;;;26.80;58.80;;;;;;5094050;28;20305;-57
2023/07/17 00:44:30;;;;;;;;;;;26.80;58.80;;;;;;5094027;28;19970;-57
2023/07/17 00:46:57;;;;;;;;;;;26.80;58.80;;;;;;5094199;28;19967;-57
2023/07/17 00:49:25;;;;;;;;;;;26.80;58.80;;;;;;5093761;28;19977;-56
2023/07/17 00:51:53;;;;;;;;;;;26.80;58.80;;;;;;5094154;28;19928;-57
2023/07/17 00:54:21;;;;;;;;;;;26.80;58.80;;;;;;5094255;28;20346;-57
2023/07/17 00:56:48;;;;;;;;;;;26.80;58.80;;;;;;5093431;28;19924;-56
2023/07/17 00:59:16;;;;;;;;;;;26.80;58.80;;;;;;5093058;28;19924;-58
2023/07/17 01:01:43;;;;;;;;;;;26.80;58.80;;;;;;5093193;28;19932;-56
2023/07/17 01:04:11;;;;;;;;;;;26.80;58.80;;;;;;5093907;28;19930;-56
2023/07/17 01:06:41;;;;;;;;;;;26.80;58.80;;;;;;5093741;28;19924;-55
2023/07/17 01:09:09;;;;;;;;;;;26.80;58.80;;;;;;5093950;28;20338;-56
2023/07/17 01:11:36;;;;;;;;;;;26.80;58.80;;;;;;5093599;28;19946;-56
2023/07/17 01:14:03;;;;;;;;;;;26.80;58.80;;;;;;5093940;28;20436;-56
2023/07/17 01:16:30;;;;;;;;;;;26.80;58.80;;;;;;5093533;28;19946;-56
2023/07/17 01:18:57;;;;;;;;;;;26.80;58.80;;;;;;5090937;28;20015;-56
2023/07/17 01:21:25;;;;;;;;;;;26.80;58.80;;;;;;5093573;28;20338;-55
2023/07/17 01:23:54;;;;;;;;;;;26.80;58.80;;;;;;5092518;28;19928;-57
2023/07/17 01:26:21;;;;;;;;;;;26.80;58.80;;;;;;5093507;28;19978;-57
2023/07/17 01:28:48;;;;;;;;;;;26.80;58.70;;;;;;5093490;28;19941;-57
2023/07/17 01:31:15;;;;;;;;;;;26.80;58.80;;;;;;5092984;28;20445;-55
2023/07/17 01:33:42;;;;;;;;;;;26.80;58.70;;;;;;5092627;28;19927;-56
2023/07/17 01:36:11;;;;;;;;;;;26.80;58.80;;;;;;5093730;28;19924;-57
2023/07/17 01:38:38;;;;;;;;;;;26.80;58.80;;;;;;5093592;28;20430;-56
2023/07/17 01:41:05;;;;;;;;;;;26.80;59.30;;;;;;5092798;28;19990;-55
2023/07/17 01:43:32;;;;;;;;;;;26.80;58.70;;;;;;5093596;28;20288;-56
2023/07/17 01:45:59;;;;;;;;;;;26.80;58.80;;;;;;5093809;28;19989;-57
2023/07/17 01:48:26;;;;;;;;;;;26.80;58.80;;;;;;5092952;28;19924;-56
2023/07/17 01:50:53;;;;;;;;;;;26.80;58.80;;;;;;5093675;28;20326;-56
2023/07/17 01:53:21;;;;;;;;;;;26.80;58.80;;;;;;5093278;28;19932;-56
2023/07/17 01:55:48;;;;;;;;;;;26.70;58.70;;;;;;5093585;28;19931;-56
2023/07/17 01:58:15;;;;;;;;;;;26.70;58.70;;;;;;5092612;28;20354;-57
2023/07/17 02:00:42;;;;;;;;;;;26.70;58.80;;;;;;5093037;28;20419;-57
2023/07/17 02:03:09;;;;;;;;;;;26.70;58.80;;;;;;5092994;28;19924;-57
2023/07/17 02:05:36;;;;;;;;;;;26.70;58.80;;;;;;5093162;28;20041;-56
2023/07/17 02:08:03;;;;;;;;;;;26.70;58.80;;;;;;5093023;28;19972;-56
2023/07/17 02:10:30;;;;;;;;;;;26.70;58.80;;;;;;5093697;28;19924;-56
2023/07/17 02:12:57;;;;;;;;;;;26.70;58.80;;;;;;5092544;28;20011;-56
2023/07/17 02:15:24;;;;;;;;;;;26.70;58.80;;;;;;5092980;28;19971;-57
2023/07/17 02:17:51;;;;;;;;;;;26.70;58.80;;;;;;5096087;28;20372;-57
2023/07/17 02:20:18;;;;;;;;;;;26.70;58.80;;;;;;5097070;28;19970;-56
2023/07/17 02:22:45;;;;;;;;;;;26.70;58.80;;;;;;5096563;28;20372;-56
2023/07/17 02:25:12;;;;;;;;;;;26.70;58.80;;;;;;5096570;28;19979;-56
2023/07/17 02:27:39;;;;;;;;;;;26.70;58.80;;;;;;5096864;28;19967;-57
2023/07/17 02:30:06;;;;;;;;;;;26.70;58.90;;;;;;5096459;28;20346;-56
2023/07/17 02:32:33;;;;;;;;;;;26.70;58.80;;;;;;5096400;28;20372;-53
2023/07/17 02:35:00;;;;;;;;;;;26.70;58.90;;;;;;5096986;28;19954;-57
2023/07/17 02:37:28;;;;;;;;;;;26.70;58.90;;;;;;5096338;28;20330;-57
2023/07/17 02:39:55;;;;;;;;;;;26.70;58.90;;;;;;5096286;28;19924;-56
2023/07/17 02:42:21;;;;;;;;;;;26.70;58.90;;;;;;5096632;28;19931;-56
2023/07/17 02:44:48;;;;;;;;;;;26.70;58.90;;;;;;5096220;28;19923;-56
2023/07/17 02:47:17;;;;;;;;;;;26.70;58.90;;;;;;5096374;28;19928;-56
2023/07/17 02:49:44;;;;;;;;;;;26.70;58.90;;;;;;5096197;28;19924;-56
2023/07/17 02:52:11;;;;;;;;;;;26.70;58.90;;;;;;5096000;28;19977;-56
2023/07/17 02:54:38;;;;;;;;;;;26.70;58.90;;;;;;5096399;28;20326;-54
2023/07/17 02:57:05;;;;;;;;;;;26.60;58.80;;;;;;5096250;28;19993;-57
2023/07/17 02:59:32;;;;;;;;;;;26.70;58.90;;;;;;5095999;28;19928;-56
2023/07/17 03:01:59;;;;;;;;;;;26.60;58.80;;;;;;5095943;28;19924;-57
2023/07/17 03:04:26;;;;;;;;;;;26.60;58.80;;;;;;5095982;28;19963;-55
2023/07/17 03:06:53;;;;;;;;;;;26.60;58.80;;;;;;5095588;28;19928;-54
2023/07/17 03:09:22;;;;;;;;;;;26.60;58.80;;;;;;5095093;28;20214;-55
2023/07/17 03:11:49;;;;;;;;;;;26.70;59.40;;;;;;5095746;28;20384;-55
2023/07/17 03:14:16;;;;;;;;;;;26.60;58.80;;;;;;5095606;28;20027;-56
2023/07/17 03:16:43;;;;;;;;;;;26.60;58.80;;;;;;5095967;28;19954;-56
2023/07/17 03:19:10;;;;;;;;;;;26.70;58.90;;;;;;5094140;28;19963;-56
2023/07/17 03:21:37;;;;;;;;;;;26.70;58.80;;;;;;5095877;28;20360;-58
2023/07/17 03:24:05;;;;;;;;;;;26.70;58.80;;;;;;5095789;28;19977;-56
2023/07/17 03:26:32;;;;;;;;;;;26.70;58.80;;;;;;5095266;28;19977;-56
2023/07/17 03:28:59;;;;;;;;;;;26.70;58.80;;;;;;5095688;28;19947;-56
2023/07/17 03:31:26;;;;;;;;;;;26.70;58.70;;;;;;5095398;28;19951;-57
2023/07/17 03:33:53;;;;;;;;;;;26.70;58.70;;;;;;5095626;28;19928;-54
2023/07/17 03:36:20;;;;;;;;;;;26.70;58.70;;;;;;5095531;28;19978;-57
2023/07/17 03:38:47;;;;;;;;;;;26.70;58.70;;;;;;5095098;28;19924;-56
2023/07/17 03:41:17;;;;;;;;;;;26.70;58.60;;;;;;5095054;28;19924;-56
2023/07/17 03:43:44;;;;;;;;;;;26.70;58.60;;;;;;5095344;28;19924;-57
2023/07/17 03:46:12;;;;;;;;;;;26.80;58.60;;;;;;5095609;28;20003;-57
2023/07/17 03:48:39;;;;;;;;;;;26.80;58.60;;;;;;5094899;28;19924;-57
2023/07/17 03:51:06;;;;;;;;;;;26.80;58.60;;;;;;5095289;28;19928;-56
2023/07/17 03:53:33;;;;;;;;;;;26.80;58.50;;;;;;5095210;28;19931;-56
2023/07/17 03:56:00;;;;;;;;;;;26.80;58.40;;;;;;5095038;28;20006;-57
2023/07/17 03:58:27;;;;;;;;;;;26.80;58.40;;;;;;5094793;28;20381;-57
2023/07/17 04:00:54;;;;;;;;;;;26.80;58.30;;;;;;5094788;28;19931;-56
2023/07/17 04:03:21;;;;;;;;;;;26.80;58.30;;;;;;5094623;28;19974;-56
2023/07/17 04:05:48;;;;;;;;;;;26.80;58.20;;;;;;5087490;28;20380;-57
2023/07/17 04:08:15;;;;;;;;;;;26.90;58.30;;;;;;5086519;28;19924;-57
2023/07/17 04:10:42;;;;;;;;;;;26.90;58.20;;;;;;5083499;28;19928;-57
2023/07/17 04:13:09;;;;;;;;;;;26.90;58.20;;;;;;5078188;28;19932;-56
2023/07/17 04:15:36;;;;;;;;;;;26.90;58.10;;;;;;5085899;28;19942;-56
2023/07/17 04:18:03;;;;;;;;;;;26.90;58.10;;;;;;5078228;28;20026;-55
2023/07/17 04:20:30;;;;;;;;;;;26.90;58.10;;;;;;5074480;28;19970;-57
2023/07/17 04:22:58;;;;;;;;;;;27.00;58.10;;;;;;5074565;28;19932;-55
2023/07/17 04:25:25;;;;;;;;;;;27.00;58.60;;;;;;5074022;28;19931;-54
2023/07/17 04:27:52;;;;;;;;;;;27.00;58.00;;;;;;5073986;28;19924;-57
2023/07/17 04:30:19;;;;;;;;;;;27.00;58.00;;;;;;5073941;28;19970;-56
2023/07/17 04:32:46;;;;;;;;;;;27.00;57.90;;;;;;5074171;28;19928;-57
2023/07/17 04:35:13;;;;;;;;;;;27.00;57.90;;;;;;5074270;28;20349;-56
2023/07/17 04:37:40;;;;;;;;;;;27.00;58.00;;;;;;5074008;28;19925;-57
2023/07/17 04:40:09;;;;;;;;;;;26.90;58.30;;;;;;5072617;28;20439;-57
2023/07/17 04:42:37;;;;;;;;;;;26.90;58.80;;;;;;5083588;28;20357;-56
2023/07/17 04:45:05;;;;;;;;;;;26.80;58.90;;;;;;5092347;28;20368;-56
2023/07/17 04:47:32;;;;;;;;;;;26.60;58.30;;;;;;5080438;28;20388;-55
2023/07/17 04:49:59;;;;;;;;;;;26.40;57.60;;;;;;5073485;28;19928;-56
2023/07/17 04:52:26;;;;;;;;;;;26.20;56.80;;;;;;5079439;28;19932;-56
2023/07/17 04:54:53;;;;;;;;;;;25.90;56.20;;;;;;5093814;28;19928;-58
2023/07/17 04:57:21;;;;;;;;;;;25.70;55.80;;;;;;5094027;28;20026;-57
2023/07/17 04:59:48;;;;;;;;;;;25.40;55.60;;;;;;5093245;28;20387;-56
2023/07/17 05:02:15;;;;;;;;;;;25.10;55.30;;;;;;5093078;28;19967;-57
2023/07/17 05:04:42;;;;;;;;;;;24.80;55.30;;;;;;5094150;28;20273;-55
2023/07/17 05:07:09;;;;;;;;;;;24.50;55.10;;;;;;5088721;28;19928;-56
2023/07/17 05:09:35;;;;;;;;;;;24.20;54.90;;;;;;5093023;28;20306;-54
2023/07/17 05:12:03;;;;;;;;;;;24.00;55.10;;;;;;5086298;28;19924;-54
2023/07/17 05:14:30;;;;;;;;;;;23.70;55.20;;;;;;5086959;28;19924;-55
2023/07/17 05:16:57;;;;;;;;;;;23.40;55.50;;;;;;5074986;28;19932;-54
2023/07/17 05:19:24;;;;;;;;;;;23.20;55.40;;;;;;5070979;28;20194;-56
2023/07/17 05:21:51;;;;;;;;;;;23.00;56.10;;;;;;5077270;28;19937;-55
2023/07/17 05:24:18;;;;;;;;;;;22.80;56.40;;;;;;5075991;28;20030;-57
2023/07/17 05:26:45;;;;;;;;;;;22.60;56.40;;;;;;5080070;28;19939;-56
2023/07/17 05:29:15;;;;;;;;;;;22.50;57.10;;;;;;5078909;28;20266;-55
2023/07/17 05:31:42;;;;;;;;;;;22.30;57.30;;;;;;5076955;28;19963;-55
2023/07/17 05:34:09;;;;;;;;;;;22.20;57.20;;;;;;5069540;28;20001;-55
2023/07/17 05:36:36;;;;;;;;;;;22.10;57.30;;;;;;5071992;28;19924;-54
2023/07/17 05:39:04;;;;;;;;;;;22.00;57.50;;;;;;5072940;28;19928;-57
2023/07/17 05:41:32;;;;;;;;;;;21.90;57.10;;;;;;5078946;28;19975;-58
2023/07/17 05:44:00;;;;;;;;;;;21.80;58.20;;;;;;5075640;28;19932;-57
2023/07/17 05:46:27;;;;;;;;;;;21.70;58.50;;;;;;5073992;28;19938;-58
2023/07/17 05:48:54;;;;;;;;;;;21.70;58.70;;;;;;5077109;28;20038;-57
2023/07/17 05:51:21;;;;;;;;;;;21.60;58.70;;;;;;5080326;28;20423;-57
2023/07/17 05:53:48;;;;;;;;;;;21.60;59.50;;;;;;5078175;28;19932;-57
2023/07/17 05:56:15;;;;;;;;;;;21.60;58.80;;;;;;5086290;28;19925;-57
2023/07/17 05:58:42;;;;;;;;;;;21.60;59.50;;;;;;5081011;28;19984;-57
2023/07/17 06:01:09;;;;;;;;;;;21.60;59.20;;;;;;5078970;28;19935;-57
2023/07/17 06:03:37;;;;;;;;;;;21.50;59.00;;;;;;5086126;28;19933;-58
2023/07/17 06:06:04;;;;;;;;;;;21.50;59.40;;;;;;5062654;28;19981;-58
2023/07/17 06:08:35;;;;;;;;;;;21.50;59.70;;;;;;5076650;28;19962;-57
2023/07/17 06:11:03;;;;;;;;;;;21.50;59.70;;;;;;5072457;28;19971;-59
2023/07/17 06:13:30;;;;;;;;;;;21.50;60.10;;;;;;5082574;28;19924;-58
2023/07/17 06:15:58;;;;;;;;;;;21.50;59.50;;;;;;5076809;28;19928;-58
2023/07/17 06:18:25;;;;;;;;;;;21.40;59.70;;;;;;5079442;28;19932;-59
2023/07/17 06:20:52;;;;;;;;;;;21.40;60.60;;;;;;5077531;28;20038;-57
2023/07/17 06:23:19;;;;;;;;;;;21.30;60.50;;;;;;5081589;28;19983;-58
2023/07/17 06:25:46;;;;;;;;;;;21.30;60.50;;;;;;5076011;28;20010;-56
2023/07/17 06:28:16;;;;;;;;;;;21.30;61.10;;;;;;5078578;28;19971;-56
2023/07/17 06:30:46;;;;;;;;;;;21.30;61.40;;;;;;5076742;28;19931;-53
2023/07/17 06:33:14;;;;;;;;;;;21.40;60.80;;;;;;5075367;28;20288;-52
2023/07/17 06:35:43;;;;;;;;;;;21.30;61.60;;;;;;5073948;28;19928;-55
2023/07/17 06:38:10;;;;;;;;;;;21.30;61.90;;;;;;5078736;28;20316;-57
2023/07/17 06:40:38;;;;;;;;;;;21.30;62.00;;;;;;5075920;28;19928;-57
2023/07/17 06:43:05;;;;;;;;;;;21.30;62.40;;;;;;5077681;28;19932;-56
2023/07/17 06:45:33;;;;;;;;;;;21.40;61.60;;;;;;5070799;28;19928;-57
2023/07/17 06:48:00;;;;;;;;;;;21.40;61.90;;;;;;5082880;28;20035;-58
2023/07/17 06:50:29;;;;;;;;;;;21.40;62.60;;;;;;5076642;28;19976;-58
2023/07/17 06:52:56;;;;;;;;;;;21.40;62.40;;;;;;5077076;28;20279;-58
2023/07/17 06:55:23;;;;;;;;;;;21.40;62.80;;;;;;5079943;28;20454;-60
2023/07/17 06:57:49;;;;;;;;;;;21.50;62.70;;;;;;5075634;28;19979;-59
2023/07/17 07:00:16;;;;;;;;;;;21.50;62.40;;;;;;5074456;28;19929;-58
2023/07/17 07:02:45;;;;;;;;;;;21.50;62.90;;;;;;5077864;28;20410;-59
2023/07/17 07:05:12;;;;;;;;;;;21.60;62.90;;;;;;5076811;28;20327;-59
2023/07/17 07:07:38;;;;;;;;;;;21.60;62.60;;;;;;5076460;28;19932;-58
2023/07/17 07:10:06;;;;;;;;;;;21.60;62.60;;;;;;5076224;28;19924;-58
2023/07/17 07:12:33;;;;;;;;;;;21.60;62.30;;;;;;5076544;28;19932;-56
2023/07/17 07:15:01;;;;;;;;;;;21.60;63.00;;;;;;5076305;28;19985;-58
2023/07/17 07:17:28;;;;;;;;;;;21.70;62.90;;;;;;5072282;28;19928;-58
2023/07/17 07:19:54;;;;;;;;;;;21.70;63.20;;;;;;5072229;28;19928;-58
2023/07/17 07:22:21;;;;;;;;;;;21.70;62.50;;;;;;5079007;28;19935;-58
2023/07/17 07:24:49;;;;;;;;;;;21.70;62.70;;;;;;5071718;28;19935;-58
2023/07/17 07:27:17;;;;;;;;;;;21.70;62.50;;;;;;5073228;28;20385;-58
2023/07/17 07:29:44;;;;;;;;;;;21.80;62.40;;;;;;5071466;28;19924;-57
2023/07/17 07:32:11;;;;;;;;;;;21.80;62.30;;;;;;5071935;28;19925;-57
2023/07/17 07:34:38;;;;;;;;;;;21.80;62.10;;;;;;5069721;28;19932;-59
2023/07/17 07:37:05;;;;;;;;;;;21.80;62.60;;;;;;5073685;28;20343;-60
2023/07/17 07:39:32;;;;;;;;;;;21.80;61.70;;;;;;5076734;28;19978;-58
2023/07/17 07:41:59;;;;;;;;;;;21.80;62.30;;;;;;5081744;28;20269;-58
2023/07/17 07:44:26;;;;;;;;;;;21.80;62.20;;;;;;5075556;28;19990;-57
2023/07/17 07:46:53;;;;;;;;;;;21.80;61.70;;;;;;5074670;28;19932;-59
2023/07/17 07:49:20;;;;;;;;;;;21.90;62.10;;;;;;5072339;28;20447;-58
2023/07/17 07:51:47;;;;;;;;;;;21.90;61.50;;;;;;5072570;28;19932;-59
2023/07/17 07:54:17;;;;;;;;;;;21.80;61.90;;;;;;5075360;28;19931;-55
2023/07/17 07:56:48;;;;;;;;;;;21.90;61.70;;;;;;5073073;28;19978;-57
2023/07/17 07:59:15;;;;;;;;;;;21.90;61.80;;;;;;5075205;28;19957;-58
2023/07/17 08:01:42;;;;;;;;;;;21.90;61.50;;;;;;5081084;28;20023;-58
2023/07/17 08:04:09;;;;;;;;;;;21.90;61.10;;;;;;5073221;28;20106;-58
2023/07/17 08:06:36;;;;;;;;;;;21.90;61.80;;;;;;5078639;28;20046;-54
2023/07/17 08:09:03;;;;;;;;;;;21.90;61.80;;;;;;5079057;28;19997;-57
2023/07/17 08:11:30;;;;;;;;;;;21.90;62.10;;;;;;5073448;28;20006;-57
2023/07/17 08:13:58;;;;;;;;;;;22.00;62.00;;;;;;5073886;28;19924;-59
2023/07/17 08:16:25;;;;;;;;;;;22.00;61.90;;;;;;5076582;28;19967;-59
2023/07/17 08:18:52;;;;;;;;;;;22.00;61.80;;;;;;5075081;28;19931;-59
2023/07/17 08:21:19;;;;;;;;;;;22.00;61.30;;;;;;5076130;28;19932;-59
2023/07/17 08:23:47;;;;;;;;;;;21.90;61.70;;;;;;5077378;28;19969;-59
2023/07/17 08:26:14;;;;;;;;;;;22.00;61.50;;;;;;5076813;28;19959;-60
2023/07/17 08:28:41;;;;;;;;;;;22.00;61.50;;;;;;5075327;28;19925;-59
2023/07/17 08:31:08;;;;;;;;;;;22.00;61.30;;;;;;5074682;28;19978;-59
2023/07/17 08:33:35;;;;;;;;;;;22.00;61.70;;;;;;5073742;28;20643;-57
2023/07/17 08:36:02;;;;;;;;;;;22.00;61.30;;;;;;5068814;28;19932;-58
2023/07/17 08:38:30;;;;;;;;;;;22.00;61.40;;;;;;5074703;28;19971;-59
2023/07/17 08:40:58;;;;;;;;;;;22.00;61.70;;;;;;5069136;28;19932;-59
2023/07/17 08:43:27;;;;;;;;;;;22.00;61.00;;;;;;5075371;28;20033;-58
2023/07/17 08:45:55;;;;;;;;;;;22.10;60.90;;;;;;5070636;28;20263;-58
2023/07/17 08:48:27;;;;;;;;;;;22.00;61.40;;;;;;5060288;28;19933;-59
2023/07/17 08:50:55;;;;;;;;;;;22.00;61.20;;;;;;5065941;28;19932;-59
2023/07/17 08:53:24;;;;;;;;;;;22.00;61.10;;;;;;5075023;28;19932;-59
2023/07/17 08:55:55;;;;;;;;;;;22.00;61.00;;;;;;5073417;28;19924;-58
2023/07/17 08:58:24;;;;;;;;;;;22.00;61.00;;;;;;5071851;28;20377;-59
2023/07/17 09:00:51;;;;;;;;;;;22.00;61.50;;;;;;5074603;28;19946;-59
2023/07/17 09:03:18;;;;;;;;;;;22.00;61.60;;;;;;5075335;28;19984;-59
2023/07/17 09:05:46;;;;;;;;;;;22.00;61.80;;;;;;5076332;28;19939;-58
2023/07/17 09:08:13;;;;;;;;;;;22.00;61.70;;;;;;5072181;28;19932;-59
2023/07/17 09:10:40;;;;;;;;;;;22.00;61.30;;;;;;5071962;28;19930;-58
2023/07/17 09:13:08;;;;;;;;;;;22.00;62.20;;;;;;5077860;28;19929;-59
2023/07/17 09:15:38;;;;;;;;;;;22.10;61.90;;;;;;5081058;28;19928;-63
2023/07/17 09:18:06;;;;;;;;;;;22.10;61.90;;;;;;5078826;28;19932;-60
2023/07/17 09:20:33;;;;;;;;;;;22.10;61.50;;;;;;5080660;28;20392;-59
2023/07/17 09:23:01;;;;;;;;;;;22.10;61.00;;;;;;5074759;28;19932;-60
2023/07/17 09:25:29;;;;;;;;;;;22.20;61.10;;;;;;5076719;28;19925;-60
2023/07/17 09:27:57;;;;;;;;;;;22.10;61.30;;;;;;5081919;28;19932;-60
2023/07/17 09:30:25;;;;;;;;;;;22.10;61.80;;;;;;5073338;28;20570;-57
2023/07/17 09:32:52;;;;;;;;;;;22.10;61.60;;;;;;5081996;28;19933;-57
2023/07/17 09:35:19;;;;;;;;;;;22.20;60.70;;;;;;5081976;28;19924;-57
2023/07/17 09:37:47;;;;;;;;;;;22.20;61.60;;;;;;5073460;28;19932;-58
2023/07/17 09:40:17;;;;;;;;;;;22.20;60.80;;;;;;5069899;28;19932;-58
2023/07/17 09:42:45;;;;;;;;;;;22.20;60.70;;;;;;5079871;28;19939;-59
2023/07/17 09:45:12;;;;;;;;;;;22.20;61.40;;;;;;5075984;28;19985;-58
2023/07/17 09:47:42;;;;;;;;;;;22.20;61.00;;;;;;5076692;28;19951;-59
2023/07/17 09:50:10;;;;;;;;;;;22.20;60.90;;;;;;5083536;28;19930;-59
2023/07/17 09:52:37;;;;;;;;;;;22.20;61.10;;;;;;5083561;28;19936;-58
2023/07/17 09:55:04;;;;;;;;;;;22.20;60.90;;;;;;5082025;28;19931;-58
2023/07/17 09:57:34;;;;;;;;;;;22.20;61.10;;;;;;5081122;28;20063;-58
2023/07/17 10:00:03;;;;;;;;;;;22.20;60.30;;;;;;5081926;28;19960;-58
2023/07/17 10:02:33;;;;;;;;;;;22.20;60.10;;;;;;5080990;28;19928;-58
2023/07/17 10:05:05;;;;;;;;;;;22.20;60.60;;;;;;5080142;28;19939;-59
2023/07/17 10:07:36;;;;;;;;;;;22.20;60.60;;;;;;5089935;28;19931;-59
2023/07/17 10:10:04;;;;;;;;;;;22.30;60.30;;;;;;5079996;28;20442;-60
2023/07/17 10:12:34;;;;;;;;;;;22.30;60.00;;;;;;5083096;28;19982;-59
2023/07/17 10:15:02;;;;;;;;;;;22.20;59.70;;;;;;5080616;28;20331;-58
2023/07/17 10:17:30;;;;;;;;;;;22.20;59.80;;;;;;5079351;28;19943;-59
2023/07/17 10:19:58;;;;;;;;;;;22.20;59.40;;;;;;5085232;28;19924;-59
2023/07/17 10:22:46;;;;;;;;;;;22.20;59.60;;;;;;5080946;28;20410;-59
2023/07/17 10:25:24;;;;;;;;;;;22.20;59.20;;;;;;5079827;28;19985;-59
2023/07/17 10:27:59;;;;;;;;;;;22.20;59.40;;;;;;5076115;28;19925;-58
2023/07/17 10:30:31;;;;;;;;;;;22.10;59.10;;;;;;5074461;28;19928;-58
2023/07/17 10:33:06;;;;;;;;;;;22.10;59.50;;;;;;5081832;28;19924;-57
2023/07/17 10:35:47;;;;;;;;;;;22.00;59.90;;;;;;5072302;28;19924;-58
2023/07/17 10:38:16;;;;;;;;;;;22.10;59.50;;;;;;5075778;28;19932;-58
2023/07/17 10:40:43;;;;;;;;;;;22.10;59.00;;;;;;5080506;28;20400;-60
2023/07/17 10:43:17;;;;;;;;;;;22.10;59.40;;;;;;5080133;28;19954;-59
2023/07/17 10:45:45;;;;;;;;;;;22.10;59.00;;;;;;5078563;28;20015;-58
2023/07/17 10:48:12;;;;;;;;;;;22.10;59.30;;;;;;5081218;28;19923;-59
2023/07/17 10:50:48;;;;;;;;;;;22.10;59.30;;;;;;5076817;28;19931;-57
2023/07/17 10:53:15;;;;;;;;;;;22.10;59.40;;;;;;5079245;28;19928;-58
2023/07/17 10:55:42;;;;;;;;;;;22.10;59.90;;;;;;5078408;28;19978;-57
2023/07/17 10:58:09;;;;;;;;;;;22.10;59.50;;;;;;5072627;28;20009;-58
2023/07/17 11:00:39;;;;;;;;;;;22.10;59.60;;;;;;5070757;28;19963;-58
2023/07/17 11:03:07;;;;;;;;;;;22.10;60.10;;;;;;5074436;28;20016;-59
2023/07/17 11:05:38;;;;;;;;;;;22.10;60.30;;;;;;5071935;28;20025;-59
2023/07/17 11:08:05;;;;;;;;;;;22.20;60.50;;;;;;5075402;28;19932;-58
2023/07/17 11:10:33;;;;;;;;;;;22.20;60.00;;;;;;5074802;28;19928;-56
2023/07/17 11:13:01;;;;;;;;;;;22.20;60.30;;;;;;5075261;28;19932;-59
2023/07/17 11:15:30;;;;;;;;;;;22.20;60.40;;;;;;5077288;28;19932;-58
2023/07/17 11:17:58;;;;;;;;;;;22.30;60.30;;;;;;5080194;28;19963;-59
2023/07/17 11:20:25;;;;;;;;;;;22.30;60.80;;;;;;5077470;28;19940;-59
2023/07/17 11:22:52;;;;;;;;;;;22.30;61.10;;;;;;5080245;28;19928;-59
2023/07/17 11:25:20;;;;;;;;;;;22.30;61.00;;;;;;5082421;28;19929;-59
2023/07/17 11:27:47;;;;;;;;;;;22.40;61.20;;;;;;5074326;28;20015;-58
2023/07/17 11:30:15;;;;;;;;;;;22.40;61.40;;;;;;5071490;28;19936;-59
2023/07/17 11:32:42;;;;;;;;;;;22.40;61.20;;;;;;5076226;28;19932;-58
2023/07/17 11:35:12;;;;;;;;;;;22.50;61.60;;;;;;5083113;28;19924;-58
2023/07/17 11:37:40;;;;;;;;;;;22.50;61.30;;;;;;5079001;28;19928;-58
2023/07/17 11:40:08;;;;;;;;;;;22.60;60.90;;;;;;5078771;28;19986;-59
2023/07/17 11:42:55;;;;;;;;;;;22.60;60.80;;;;;;5074356;28;20862;-59
2023/07/17 11:45:26;;;;;;;;;;;22.60;61.30;;;;;;5075473;28;20402;-57
2023/07/17 11:47:54;;;;;;;;;;;22.70;61.20;;;;;;5070922;28;19929;-57
2023/07/17 11:50:25;;;;;;;;;;;22.70;60.70;;;;;;5074268;28;19931;-59
2023/07/17 11:53:04;;;;;;;;;;;22.70;60.80;;;;;;5071590;28;19998;-58
2023/07/17 11:55:35;;;;;;;;;;;22.70;61.00;;;;;;5073198;28;19925;-60
2023/07/17 11:58:19;;;;;;;;;;;22.70;60.70;;;;;;5074502;28;19925;-57
2023/07/17 12:00:47;;;;;;;;;;;22.60;60.90;;;;;;5081689;28;19962;-59
2023/07/17 12:03:15;;;;;;;;;;;22.60;60.90;;;;;;5078324;28;19928;-59
2023/07/17 12:05:43;;;;;;;;;;;22.60;61.20;;;;;;5083865;28;20344;-58
2023/07/17 12:08:10;;;;;;;;;;;22.60;61.10;;;;;;5072191;28;20002;-57
2023/07/17 12:10:37;;;;;;;;;;;22.60;61.70;;;;;;5073806;28;19936;-58
2023/07/17 12:13:05;;;;;;;;;;;22.60;61.00;;;;;;5072757;28;19928;-60
2023/07/17 12:15:33;;;;;;;;;;;22.60;61.60;;;;;;5071096;28;19924;-58
2023/07/17 12:18:00;;;;;;;;;;;22.60;62.00;;;;;;5075890;28;20027;-56
2023/07/17 12:20:28;;;;;;;;;;;22.60;61.60;;;;;;5074613;28;19940;-58
2023/07/17 12:22:56;;;;;;;;;;;22.60;61.50;;;;;;5078968;28;19970;-58
2023/07/17 12:25:24;;;;;;;;;;;22.70;61.80;;;;;;5081931;28;20365;-58
2023/07/17 12:27:51;;;;;;;;;;;22.70;61.30;;;;;;5072566;28;19985;-57
2023/07/17 12:30:21;;;;;;;;;;;22.70;61.30;;;;;;5077127;28;19978;-58
2023/07/17 12:32:49;;;;;;;;;;;22.70;61.30;;;;;;5075785;28;20388;-59
2023/07/17 12:35:16;;;;;;;;;;;22.80;61.30;;;;;;5073128;28;19989;-59
2023/07/17 12:37:43;;;;;;;;;;;22.80;61.40;;;;;;5072408;28;19936;-57
2023/07/17 12:40:10;;;;;;;;;;;22.80;60.90;;;;;;5070759;28;19928;-56
2023/07/17 12:42:39;;;;;;;;;;;22.80;61.00;;;;;;5074268;28;20033;-58
2023/07/17 12:45:06;;;;;;;;;;;22.90;60.50;;;;;;5072646;28;19935;-58
2023/07/17 12:47:33;;;;;;;;;;;22.90;60.60;;;;;;5070462;28;19936;-59
2023/07/17 12:50:01;;;;;;;;;;;22.90;60.60;;;;;;5071309;28;19932;-54
2023/07/17 12:52:29;;;;;;;;;;;22.90;60.90;;;;;;5072603;28;19928;-59
2023/07/17 12:54:56;;;;;;;;;;;22.90;60.80;;;;;;5082971;28;19928;-59
2023/07/17 12:57:23;;;;;;;;;;;22.80;60.60;;;;;;5071359;28;19932;-59
2023/07/17 12:59:54;;;;;;;;;;;22.80;60.90;;;;;;5072685;28;19924;-59
2023/07/17 13:02:23;;;;;;;;;;;22.80;60.80;;;;;;5082217;28;19931;-59
2023/07/17 13:04:51;;;;;;;;;;;22.80;60.80;;;;;;5076243;28;20003;-59
2023/07/17 13:07:18;;;;;;;;;;;22.80;60.80;;;;;;5078108;28;19932;-56
2023/07/17 13:09:45;;;;;;;;;;;22.90;60.70;;;;;;5070765;28;19936;-60
2023/07/17 13:12:12;;;;;;;;;;;22.90;60.70;;;;;;5067626;28;19932;-58
2023/07/17 13:14:40;;;;;;;;;;;22.90;60.80;;;;;;5069088;28;19928;-58
2023/07/17 13:17:07;;;;;;;;;;;22.90;60.50;;;;;;5073467;28;20397;-59
2023/07/17 13:19:35;;;;;;;;;;;22.90;61.40;;;;;;5068984;28;20482;-59
2023/07/17 13:22:02;;;;;;;;;;;23.00;60.60;;;;;;5072575;28;20027;-57
2023/07/17 13:24:30;;;;;;;;;;;23.00;60.50;;;;;;5078098;28;19981;-58
2023/07/17 13:26:57;;;;;;;;;;;23.00;60.50;;;;;;5071031;28;19967;-59
2023/07/17 13:29:24;;;;;;;;;;;23.00;60.00;;;;;;5073798;28;19949;-58
2023/07/17 13:31:51;;;;;;;;;;;23.10;60.10;;;;;;5068115;28;19928;-59
2023/07/17 13:34:18;;;;;;;;;;;23.10;60.10;;;;;;5072592;28;19928;-59
2023/07/17 13:36:45;;;;;;;;;;;23.10;60.00;;;;;;5086609;28;19924;-59
2023/07/17 13:39:13;;;;;;;;;;;23.10;59.70;;;;;;5076545;28;19935;-59
2023/07/17 13:41:41;;;;;;;;;;;23.10;59.60;;;;;;5076070;28;19924;-59
2023/07/17 13:44:09;;;;;;;;;;;23.10;59.70;;;;;;5071108;28;19968;-58
2023/07/17 13:46:36;;;;;;;;;;;23.10;59.60;;;;;;5079678;28;20296;-57
2023/07/17 13:49:04;;;;;;;;;;;23.10;59.80;;;;;;5072222;28;19928;-58
2023/07/17 13:51:33;;;;;;;;;;;23.10;59.40;;;;;;5070516;28;19938;-58
2023/07/17 13:54:00;;;;;;;;;;;23.10;59.90;;;;;;5071874;28;19936;-57
2023/07/17 13:56:27;;;;;;;;;;;23.10;58.80;;;;;;5073365;28;19954;-58
2023/07/17 13:58:57;;;;;;;;;;;23.10;58.60;;;;;;5081534;28;20557;-58
2023/07/17 14:01:24;;;;;;;;;;;23.00;58.80;;;;;;5073850;28;19932;-59
2023/07/17 14:03:53;;;;;;;;;;;23.10;61.50;;;;;;5078716;28;19925;-59
2023/07/17 14:06:20;;;;;;;;;;;23.30;65.40;;;;;;5075608;28;19983;-59
2023/07/17 14:08:47;;;;;;;;;;;23.50;69.10;;;;;;5080011;28;19936;-59
2023/07/17 14:11:16;;;;;;;;;;;23.80;70.10;;;;;;5074595;28;20265;-59
2023/07/17 14:13:44;;;;;;;;;;;24.20;70.20;;;;;;5086468;28;19928;-58
2023/07/17 14:16:11;;;;;;;;;;;24.50;70.20;;;;;;5080761;28;19967;-59
2023/07/17 14:18:38;;;;;;;;;;;24.80;69.90;;;;;;5077998;28;20417;-58